Time;durP1;ratioP1;P1;durP2;ratioP2;P2;SDS_P1;SDS_P2;PMS_P1;PMS_P2;Temp;Humidity;BMP_temperature;BMP_pressure;BME280_temperature;BME280_humidity;BME280_pressure;Samples;Min_cycle;Max_cycle;Signal;HPM_P1;HPM_P2
2022/08/19 00:00:02;;;;;;;11.35;7.53;;;16.90;99.90;;;;;;5015054;28;20046;-62
2022/08/19 00:02:28;;;;;;;10.13;7.85;;;16.90;99.90;;;;;;5013810;28;20078;-62
2022/08/19 00:04:54;;;;;;;10.32;7.57;;;16.90;99.90;;;;;;5014980;28;20134;-62
2022/08/19 00:07:20;;;;;;;10.50;7.72;;;16.90;99.90;;;;;;5014662;28;20104;-63
2022/08/19 00:09:45;;;;;;;8.57;6.95;;;16.90;99.90;;;;;;5014704;28;20042;-63
2022/08/19 00:12:13;;;;;;;9.40;7.40;;;16.90;99.90;;;;;;4997054;28;20054;-67
2022/08/19 00:14:40;;;;;;;12.07;8.05;;;16.90;99.90;;;;;;5014783;28;20085;-63
2022/08/19 00:17:07;;;;;;;12.07;7.95;;;16.90;99.90;;;;;;5015104;28;20053;-63
2022/08/19 00:19:35;;;;;;;8.52;7.63;;;16.90;99.90;;;;;;5014353;28;20510;-63
2022/08/19 00:22:02;;;;;;;11.20;7.88;;;16.90;99.90;;;;;;5014562;28;20077;-63
2022/08/19 00:24:28;;;;;;;12.77;8.15;;;16.80;99.90;;;;;;5014397;28;20064;-63
2022/08/19 00:26:56;;;;;;;11.90;7.90;;;16.80;99.90;;;;;;5014653;28;20049;-63
2022/08/19 00:29:23;;;;;;;10.57;7.70;;;16.80;99.90;;;;;;5014190;28;20050;-64
2022/08/19 00:31:52;;;;;;;9.18;7.57;;;16.70;99.90;;;;;;5014399;28;20049;-64
2022/08/19 00:34:18;;;;;;;10.05;7.28;;;16.70;99.90;;;;;;5014252;28;20053;-64
2022/08/19 00:36:44;;;;;;;11.75;7.57;;;16.70;99.90;;;;;;5014011;28;20165;-63
2022/08/19 00:39:11;;;;;;;10.50;7.80;;;16.70;99.90;;;;;;5013127;28;20136;-63
2022/08/19 00:41:37;;;;;;;12.07;8.05;;;16.70;99.90;;;;;;5012649;28;20096;-63
2022/08/19 00:44:14;;;;;;;11.75;6.60;;;16.60;99.90;;;;;;4996915;28;20049;-64
2022/08/19 00:46:43;;;;;;;11.63;7.20;;;16.60;99.90;;;;;;5014370;28;20085;-63
2022/08/19 00:49:36;;;;;;;11.23;8.20;;;16.60;99.90;;;;;;5014265;28;20396;-63
2022/08/19 00:52:06;;;;;;;10.40;7.45;;;16.60;99.90;;;;;;5012764;28;20046;-63
2022/08/19 00:54:32;;;;;;;11.98;8.77;;;16.60;99.90;;;;;;5012681;28;20506;-64
2022/08/19 00:57:01;;;;;;;11.45;8.40;;;16.60;99.90;;;;;;5014100;28;20057;-63
2022/08/19 00:59:28;;;;;;;12.80;8.30;;;16.50;99.90;;;;;;5013721;28;20041;-63
2022/08/19 01:01:54;;;;;;;9.65;8.25;;;16.50;99.90;;;;;;5012476;28;20058;-63
2022/08/19 01:04:20;;;;;;;10.77;8.18;;;16.40;99.90;;;;;;5012536;28;20060;-65
2022/08/19 01:06:46;;;;;;;12.65;8.98;;;16.40;99.90;;;;;;5013850;28;20065;-64
2022/08/19 01:09:11;;;;;;;11.23;7.57;;;16.40;99.90;;;;;;5013688;28;20053;-63
2022/08/19 01:11:42;;;;;;;12.40;8.40;;;16.40;99.90;;;;;;4995659;28;20052;-62
2022/08/19 01:14:09;;;;;;;13.77;9.68;;;16.40;99.90;;;;;;4996487;28;20144;-64
2022/08/19 01:16:35;;;;;;;12.40;8.88;;;16.40;99.90;;;;;;5013479;28;20049;-61
2022/08/19 01:19:01;;;;;;;10.10;8.63;;;16.40;99.90;;;;;;5012383;28;20045;-65
2022/08/19 01:21:53;;;;;;;12.73;8.95;;;16.40;99.90;;;;;;5011926;28;20121;-64
2022/08/19 01:24:18;;;;;;;12.55;8.93;;;16.40;99.90;;;;;;5013451;28;20480;-65
2022/08/19 01:26:46;;;;;;;13.98;9.15;;;16.40;99.90;;;;;;5013059;28;20048;-64
2022/08/19 01:29:12;;;;;;;14.05;9.15;;;16.40;99.90;;;;;;5013655;28;20104;-63
2022/08/19 01:31:39;;;;;;;11.82;8.60;;;16.40;99.90;;;;;;5013014;28;20049;-63
2022/08/19 01:34:05;;;;;;;13.98;9.20;;;16.40;99.90;;;;;;5013648;28;20060;-65
2022/08/19 01:36:42;;;;;;;9.77;8.15;;;16.40;99.90;;;;;;5011884;28;20054;-65
2022/08/19 01:39:11;;;;;;;10.82;8.52;;;16.40;99.90;;;;;;5013465;28;20104;-62
2022/08/19 01:41:37;;;;;;;13.93;9.10;;;16.40;99.90;;;;;;5012819;28;20042;-62
2022/08/19 01:44:06;;;;;;;12.43;8.93;;;16.40;99.90;;;;;;5013081;28;20450;-63
2022/08/19 01:46:32;;;;;;;11.60;9.23;;;16.40;99.90;;;;;;5012962;28;20077;-62
2022/08/19 01:48:58;;;;;;;11.32;9.27;;;16.40;99.90;;;;;;5012234;28;20522;-62
2022/08/19 01:51:24;;;;;;;11.95;9.32;;;16.40;99.90;;;;;;5011672;28;20077;-62
2022/08/19 01:53:51;;;;;;;11.05;9.60;;;16.40;99.90;;;;;;5012726;28;20065;-63
2022/08/19 01:56:19;;;;;;;10.80;9.55;;;16.40;99.90;;;;;;5011914;28;20053;-62
2022/08/19 01:58:59;;;;;;;12.48;9.75;;;16.40;99.90;;;;;;4995349;28;20160;-63
2022/08/19 02:01:25;;;;;;;14.63;10.93;;;16.40;99.90;;;;;;5012768;28;20042;-69
2022/08/19 02:03:53;;;;;;;12.50;9.27;;;16.40;99.90;;;;;;5011497;28;20046;-63
2022/08/19 02:06:20;;;;;;;11.60;9.75;;;16.40;99.90;;;;;;5012895;28;20099;-63
2022/08/19 02:08:46;;;;;;;15.73;10.20;;;16.40;99.90;;;;;;5012539;28;20176;-64
2022/08/19 02:11:31;;;;;;;15.35;11.05;;;16.30;99.90;;;;;;5012593;28;20136;-63
2022/08/19 02:13:57;;;;;;;18.08;11.98;;;16.30;99.90;;;;;;4994450;28;20084;-63
2022/08/19 02:16:23;;;;;;;16.25;12.15;;;16.30;99.90;;;;;;5012437;28;20049;-63
2022/08/19 02:18:50;;;;;;;16.48;12.43;;;16.30;99.90;;;;;;5011850;28;20050;-64
2022/08/19 02:21:20;;;;;;;17.63;11.57;;;16.30;99.90;;;;;;4994800;28;20046;-63
2022/08/19 02:23:47;;;;;;;13.18;10.27;;;16.30;99.90;;;;;;5012066;28;20050;-63
2022/08/19 02:26:13;;;;;;;16.55;10.40;;;16.30;99.90;;;;;;5012456;28;20046;-62
2022/08/19 02:28:40;;;;;;;14.52;10.82;;;16.30;99.90;;;;;;5011260;28;20072;-62
2022/08/19 02:31:17;;;;;;;13.90;10.15;;;16.30;99.90;;;;;;5012220;28;20380;-62
2022/08/19 02:33:43;;;;;;;19.02;10.75;;;16.30;99.90;;;;;;5010790;28;20479;-63
2022/08/19 02:36:11;;;;;;;15.35;10.35;;;16.30;99.90;;;;;;5012322;28;20049;-62
2022/08/19 02:38:37;;;;;;;19.25;11.10;;;16.30;99.90;;;;;;5011057;28;20045;-62
2022/08/19 02:41:09;;;;;;;14.25;10.02;;;16.20;99.90;;;;;;5011180;28;20057;-63
2022/08/19 02:43:36;;;;;;;13.23;10.80;;;16.20;99.90;;;;;;5011900;28;20129;-63
2022/08/19 02:46:20;;;;;;;13.05;10.55;;;16.20;99.90;;;;;;5010775;28;20046;-62
2022/08/19 02:48:49;;;;;;;11.13;9.87;;;16.20;99.90;;;;;;5011733;28;20606;-63
2022/08/19 02:51:17;;;;;;;13.57;10.15;;;16.20;99.90;;;;;;5011979;28;20308;-62
2022/08/19 02:53:43;;;;;;;14.23;9.75;;;16.20;99.90;;;;;;5011814;28;20050;-62
2022/08/19 02:56:09;;;;;;;13.88;9.93;;;16.10;99.90;;;;;;5010947;28;20052;-62
2022/08/19 02:58:34;;;;;;;11.43;9.95;;;16.20;99.90;;;;;;5011724;28;20546;-63
2022/08/19 03:01:00;;;;;;;12.48;8.88;;;16.20;99.90;;;;;;5010312;28;20038;-64
2022/08/19 03:03:26;;;;;;;10.48;8.82;;;16.10;99.90;;;;;;5010833;28;20046;-65
2022/08/19 03:05:52;;;;;;;12.52;9.13;;;16.10;99.90;;;;;;5011502;28;20042;-62
2022/08/19 03:08:17;;;;;;;13.23;9.30;;;16.10;99.90;;;;;;5010812;28;20176;-63
2022/08/19 03:10:46;;;;;;;13.95;8.73;;;16.10;99.90;;;;;;4994082;28;20432;-64
2022/08/19 03:13:15;;;;;;;11.00;8.60;;;16.10;99.90;;;;;;5010170;28;20099;-63
2022/08/19 03:15:43;;;;;;;12.40;8.20;;;16.10;99.90;;;;;;5010215;28;20123;-64
2022/08/19 03:18:09;;;;;;;13.35;8.60;;;16.10;99.90;;;;;;5011828;28;20148;-63
2022/08/19 03:20:41;;;;;;;10.90;7.80;;;16.10;99.90;;;;;;5011693;28;20594;-63
2022/08/19 03:23:06;;;;;;;13.80;8.57;;;16.20;99.90;;;;;;5010717;28;20054;-62
2022/08/19 03:25:37;;;;;;;12.98;8.05;;;16.10;99.90;;;;;;5011862;28;20103;-62
2022/08/19 03:28:03;;;;;;;10.38;7.72;;;16.10;99.90;;;;;;5010862;28;20141;-62
2022/08/19 03:30:28;;;;;;;13.18;7.60;;;16.20;99.90;;;;;;5011660;28;20156;-62
2022/08/19 03:32:54;;;;;;;10.35;7.28;;;16.10;99.90;;;;;;5011656;28;20124;-62
2022/08/19 03:35:20;;;;;;;10.98;7.55;;;16.10;99.90;;;;;;5011556;28;20096;-63
2022/08/19 03:37:45;;;;;;;13.85;7.97;;;16.10;99.90;;;;;;5011271;28;20049;-63
2022/08/19 03:40:11;;;;;;;11.25;7.90;;;16.10;99.90;;;;;;5010568;28;20045;-63
2022/08/19 03:42:37;;;;;;;10.80;7.65;;;16.10;99.90;;;;;;5011704;28;20046;-63
2022/08/19 03:45:03;;;;;;;11.88;7.55;;;16.10;99.90;;;;;;5010916;28;20042;-63
2022/08/19 03:47:30;;;;;;;9.07;8.07;;;16.10;99.90;;;;;;5011477;28;20046;-63
2022/08/19 03:49:55;;;;;;;12.00;8.48;;;16.10;99.90;;;;;;5011236;28;20085;-63
2022/08/19 03:52:21;;;;;;;9.80;8.38;;;16.10;99.90;;;;;;5011417;28;20081;-62
2022/08/19 03:54:47;;;;;;;11.68;7.85;;;16.10;99.90;;;;;;5011201;28;20053;-63
2022/08/19 03:57:12;;;;;;;9.60;8.45;;;16.10;99.90;;;;;;5011578;28;20068;-62
2022/08/19 03:59:39;;;;;;;12.35;8.13;;;16.10;99.90;;;;;;5011178;28;20052;-63
2022/08/19 04:02:12;;;;;;;10.93;8.23;;;16.10;99.90;;;;;;5010113;28;20101;-63
2022/08/19 04:04:40;;;;;;;10.73;8.23;;;16.10;99.90;;;;;;5011464;28;20085;-63
2022/08/19 04:07:06;;;;;;;15.15;8.35;;;16.10;99.90;;;;;;5011071;28;20132;-63
2022/08/19 04:09:34;;;;;;;9.70;7.72;;;16.10;99.90;;;;;;5010337;28;20467;-64
2022/08/19 04:12:00;;;;;;;10.57;8.10;;;16.10;99.90;;;;;;5011075;28;20062;-64
2022/08/19 04:14:31;;;;;;;12.45;7.45;;;16.00;99.90;;;;;;5013974;28;20052;-64
2022/08/19 04:16:59;;;;;;;10.75;8.23;;;16.00;99.90;;;;;;5014425;28;20042;-63
2022/08/19 04:19:26;;;;;;;14.73;8.40;;;16.00;99.90;;;;;;4997246;28;20503;-64
2022/08/19 04:21:53;;;;;;;9.05;7.47;;;16.00;99.90;;;;;;5013499;28;20133;-64
2022/08/19 04:24:20;;;;;;;11.18;8.25;;;16.00;99.90;;;;;;5014711;28;20085;-65
2022/08/19 04:26:47;;;;;;;11.05;8.38;;;16.00;99.90;;;;;;5014192;28;20046;-63
2022/08/19 04:29:24;;;;;;;11.55;8.35;;;16.00;99.90;;;;;;5014149;28;20128;-63
2022/08/19 04:31:52;;;;;;;11.65;8.32;;;16.00;99.90;;;;;;5012967;28;20396;-65
2022/08/19 04:34:23;;;;;;;12.38;9.00;;;16.00;99.90;;;;;;5014418;28;20065;-64
2022/08/19 04:36:50;;;;;;;12.57;8.50;;;15.90;99.90;;;;;;5012649;28;20408;-63
2022/08/19 04:39:19;;;;;;;11.63;8.93;;;15.90;99.90;;;;;;5014113;28;20050;-63
2022/08/19 04:44:35;;;;;;;10.57;8.40;;;16.00;99.90;;;;;;5013257;28;20053;-63
2022/08/19 04:47:04;;;;;;;12.82;9.07;;;16.00;99.90;;;;;;5013768;28;20515;-63
2022/08/19 04:49:30;;;;;;;11.73;9.10;;;16.00;99.90;;;;;;5013891;28;20060;-63
2022/08/19 04:51:56;;;;;;;11.30;8.43;;;15.90;99.90;;;;;;5012371;28;20049;-63
2022/08/19 04:54:24;;;;;;;12.35;8.57;;;15.90;99.90;;;;;;5013951;28;20116;-64
2022/08/19 04:56:52;;;;;;;13.38;9.00;;;15.90;99.90;;;;;;5013755;28;20072;-64
2022/08/19 04:59:19;;;;;;;10.82;8.35;;;16.00;99.90;;;;;;4996360;28;20384;-63
2022/08/19 05:01:49;;;;;;;10.45;8.05;;;16.00;99.90;;;;;;5013898;28;20078;-63
2022/08/19 05:04:18;;;;;;;13.73;8.43;;;16.00;99.90;;;;;;4996161;28;20527;-63
2022/08/19 05:06:45;;;;;;;10.50;8.23;;;16.10;99.90;;;;;;5013728;28;20049;-64
2022/08/19 05:09:10;;;;;;;10.45;8.23;;;16.10;99.90;;;;;;5011855;28;20042;-63
2022/08/19 05:11:40;;;;;;;12.02;8.48;;;16.10;99.90;;;;;;5011951;28;20141;-64
2022/08/19 05:14:07;;;;;;;10.95;8.98;;;16.20;99.90;;;;;;5013313;28;20096;-62
2022/08/19 05:16:34;;;;;;;12.10;8.43;;;16.30;99.90;;;;;;5013713;28;20045;-62
2022/08/19 05:24:29;;;;;;;12.68;9.68;;;16.50;99.90;;;;;;5013106;28;20054;-63
2022/08/19 05:26:56;;;;;;;13.20;9.52;;;16.50;99.90;;;;;;5012938;28;20042;-62
2022/08/19 05:29:25;;;;;;;13.13;9.63;;;16.60;99.90;;;;;;5013334;28;20096;-63
2022/08/19 05:31:52;;;;;;;14.93;11.02;;;16.70;99.90;;;;;;5013453;28;20049;-62
2022/08/19 05:34:25;;;;;;;13.27;9.65;;;16.80;99.90;;;;;;5012309;28;20050;-65
2022/08/19 05:36:56;;;;;;;13.10;9.80;;;16.90;99.90;;;;;;4979826;28;20133;-62
2022/08/19 05:39:26;;;;;;;14.18;10.52;;;17.10;99.90;;;;;;5013087;28;20765;-66
2022/08/19 05:41:58;;;;;;;11.80;9.63;;;17.40;99.90;;;;;;5012564;28;20108;-65
2022/08/19 05:44:33;;;;;;;13.68;8.82;;;18.00;99.90;;;;;;5013804;28;20050;-64
2022/08/19 05:47:05;;;;;;;10.40;8.65;;;18.90;99.90;;;;;;4996597;28;20440;-67
2022/08/19 05:49:33;;;;;;;11.82;8.30;;;19.80;99.90;;;;;;5012194;28;20056;-66
2022/08/19 05:52:01;;;;;;;13.52;7.70;;;;;;;;;;5012873;28;20128;-66
2022/08/19 05:54:27;;;;;;;10.02;8.30;;;20.70;99.90;;;;;;5012063;28;20119;-64
2022/08/19 05:56:53;;;;;;;10.90;8.18;;;22.30;99.90;;;;;;5013124;28;20479;-66
2022/08/19 05:59:21;;;;;;;9.50;7.30;;;22.80;99.90;;;;;;4979202;28;20073;-68
2022/08/19 06:01:50;;;;;;;9.48;8.10;;;23.20;99.90;;;;;;5011724;28;20085;-64
2022/08/19 06:04:18;;;;;;;10.05;7.93;;;23.70;99.90;;;;;;5011248;28;20168;-65
2022/08/19 06:06:45;;;;;;;10.13;8.05;;;24.40;99.90;;;;;;5012671;28;20038;-65
2022/08/19 06:09:12;;;;;;;8.82;6.90;;;24.90;99.90;;;;;;5011252;28;20046;-65
2022/08/19 06:11:44;;;;;;;8.45;7.28;;;25.70;99.90;;;;;;5011917;28;20399;-66
2022/08/19 06:14:13;;;;;;;7.68;6.28;;;26.10;99.90;;;;;;5011986;28;20380;-66
2022/08/19 06:16:41;;;;;;;7.57;6.28;;;26.50;99.90;;;;;;5012157;28;20557;-66
2022/08/19 06:19:10;;;;;;;7.68;5.93;;;26.90;99.90;;;;;;5012080;28;20053;-65
2022/08/19 06:21:38;;;;;;;7.55;6.40;;;27.30;99.90;;;;;;5011598;28;20045;-66
2022/08/19 06:24:09;;;;;;;6.85;5.72;;;27.70;99.30;;;;;;4994702;28;20046;-65
2022/08/19 06:26:38;;;;;;;7.07;5.70;;;27.80;98.70;;;;;;5012600;28;20070;-66
2022/08/19 06:29:06;;;;;;;8.85;5.22;;;28.00;98.80;;;;;;5011114;28;20464;-66
2022/08/19 06:31:34;;;;;;;6.50;5.45;;;28.30;97.90;;;;;;5009820;28;20044;-66
2022/08/19 06:34:02;;;;;;;6.00;4.90;;;28.40;97.60;;;;;;5011442;28;20053;-66
2022/08/19 06:36:34;;;;;;;7.25;5.22;;;28.60;97.00;;;;;;5011514;28;20053;-67
2022/08/19 06:39:05;;;;;;;6.90;5.22;;;28.70;96.70;;;;;;5011067;28;20201;-66
2022/08/19 06:41:33;;;;;;;7.15;5.47;;;28.70;96.20;;;;;;5011227;28;20060;-64
2022/08/19 06:43:59;;;;;;;7.15;5.50;;;28.90;96.90;;;;;;5012059;28;20050;-65
2022/08/19 06:46:26;;;;;;;7.00;5.60;;;29.00;96.80;;;;;;5011898;28;20100;-64
2022/08/19 06:48:53;;;;;;;7.45;5.50;;;29.10;96.30;;;;;;5010992;28;20109;-64
2022/08/19 06:51:19;;;;;;;12.00;5.32;;;29.20;96.60;;;;;;5011762;28;20423;-64
2022/08/19 06:53:47;;;;;;;7.40;5.20;;;29.40;96.00;;;;;;5012156;28;20050;-66
2022/08/19 06:56:18;;;;;;;6.78;4.88;;;29.60;95.90;;;;;;5010777;28;20085;-65
2022/08/19 06:58:44;;;;;;;11.57;4.88;;;29.80;95.50;;;;;;5012160;28;20041;-64
2022/08/19 07:01:10;;;;;;;6.20;4.53;;;30.00;95.90;;;;;;5010521;28;20085;-67
2022/08/19 07:03:38;;;;;;;6.60;4.55;;;30.10;95.30;;;;;;5012226;28;20089;-67
2022/08/19 07:06:10;;;;;;;5.85;4.57;;;30.20;94.70;;;;;;5012262;28;20065;-66
2022/08/19 07:08:37;;;;;;;6.28;4.95;;;30.30;95.20;;;;;;4995664;28;20103;-65
2022/08/19 07:11:10;;;;;;;6.85;4.47;;;30.10;94.50;;;;;;4994612;28;20053;-67
2022/08/19 07:13:37;;;;;;;6.90;5.00;;;30.10;94.30;;;;;;5011696;28;20461;-68
2022/08/19 07:16:21;;;;;;;6.93;4.95;;;30.00;95.10;;;;;;4978630;28;20395;-66
2022/08/19 07:18:49;;;;;;;7.43;5.30;;;29.90;94.90;;;;;;5012002;28;20054;-68
2022/08/19 07:21:19;;;;;;;8.43;4.90;;;29.80;94.40;;;;;;5010470;28;20110;-68
2022/08/19 07:23:45;;;;;;;8.60;4.43;;;29.70;95.00;;;;;;5011122;28;20480;-68
2022/08/19 07:26:18;;;;;;;5.18;4.15;;;29.40;95.30;;;;;;5010379;28;20042;-68
2022/08/19 07:28:46;;;;;;;7.35;4.93;;;29.10;95.30;;;;;;5010123;28;20053;-66
2022/08/19 07:31:14;;;;;;;8.82;5.18;;;28.80;95.80;;;;;;5011444;28;20391;-64
2022/08/19 07:33:42;;;;;;;8.15;6.00;;;28.30;95.80;;;;;;5010699;28;20081;-66
2022/08/19 07:36:13;;;;;;;7.05;5.18;;;28.00;96.40;;;;;;5010456;28;20483;-67
2022/08/19 07:38:41;;;;;;;6.88;5.30;;;27.80;97.00;;;;;;5010308;28;20042;-64
2022/08/19 07:41:11;;;;;;;7.20;5.53;;;28.00;96.80;;;;;;5011272;28;20042;-63
2022/08/19 07:43:38;;;;;;;8.88;5.95;;;28.50;96.60;;;;;;5010183;28;20145;-62
2022/08/19 07:46:03;;;;;;;7.32;5.40;;;29.00;96.20;;;;;;5011787;28;20442;-63
2022/08/19 07:48:29;;;;;;;7.68;5.35;;;29.40;96.00;;;;;;5015193;28;20057;-63
2022/08/19 07:51:01;;;;;;;6.50;4.85;;;29.90;95.10;;;;;;5013798;28;20038;-65
2022/08/19 07:53:28;;;;;;;8.52;5.28;;;30.50;95.00;;;;;;5015162;28;20042;-64
2022/08/19 07:55:53;;;;;;;7.15;5.18;;;31.00;94.80;;;;;;5013989;28;20554;-63
2022/08/19 07:58:21;;;;;;;8.43;5.28;;;31.40;93.70;;;;;;4997539;28;20136;-62
2022/08/19 08:00:50;;;;;;;6.43;4.82;;;31.90;94.20;;;;;;5014197;28;20054;-64
2022/08/19 08:03:18;;;;;;;6.75;5.25;;;32.30;93.30;;;;;;5015097;28;20054;-64
2022/08/19 08:11:04;;;;;;;8.35;5.75;;;33.70;91.00;;;;;;5013932;28;20058;-64
2022/08/19 08:13:29;;;;;;;6.80;6.10;;;34.00;91.00;;;;;;5013426;28;20123;-64
2022/08/19 08:15:56;;;;;;;6.97;5.75;;;34.40;90.00;;;;;;5015047;28;20057;-65
2022/08/19 08:18:24;;;;;;;6.57;5.57;;;34.50;89.50;;;;;;5013596;28;20053;-65
2022/08/19 08:20:49;;;;;;;9.77;5.47;;;34.80;90.10;;;;;;5014033;28;20045;-63
2022/08/19 08:23:25;;;;;;;7.35;5.32;;;35.10;88.90;;;;;;4997814;28;20137;-63
2022/08/19 08:25:56;;;;;;;7.15;5.00;;;35.20;88.50;;;;;;5013978;28;20077;-64
2022/08/19 08:28:23;;;;;;;5.78;4.97;;;35.20;87.30;;;;;;5014826;28;20089;-63
2022/08/19 08:30:49;;;;;;;5.43;4.38;;;35.30;87.10;;;;;;5014898;28;20050;-63
2022/08/19 08:33:23;;;;;;;6.18;4.38;;;35.40;85.10;;;;;;4997475;28;20053;-64
2022/08/19 08:35:49;;;;;;;6.53;4.18;;;35.50;84.90;;;;;;5014845;28;20049;-64
2022/08/19 08:38:17;;;;;;;6.35;4.50;;;35.80;85.80;;;;;;5013545;28;20053;-64
2022/08/19 08:40:53;;;;;;;5.65;4.10;;;36.00;84.10;;;;;;5013630;28;20054;-64
2022/08/19 08:43:36;;;;;;;6.72;4.05;;;36.30;84.00;;;;;;4997088;28;20508;-64
2022/08/19 08:46:34;;;;;;;6.03;4.63;;;36.40;82.90;;;;;;5013509;28;20053;-63
2022/08/19 08:49:08;;;;;;;7.10;5.78;;;36.40;82.80;;;;;;5013628;28;20091;-64
2022/08/19 08:51:47;;;;;;;7.43;6.32;;;35.90;82.90;;;;;;5012899;28;20046;-64
2022/08/19 08:54:17;;;;;;;7.90;6.55;;;35.80;83.60;;;;;;4996997;28;20049;-64
2022/08/19 08:56:44;;;;;;;8.82;5.97;;;35.80;83.50;;;;;;5012912;28;20046;-64
2022/08/19 08:59:26;;;;;;;7.15;6.45;;;36.00;83.70;;;;;;5013713;28;20054;-63
2022/08/19 09:01:52;;;;;;;7.27;5.93;;;35.90;82.60;;;;;;5014350;28;20038;-64
2022/08/19 09:04:18;;;;;;;8.35;5.57;;;35.90;83.20;;;;;;5012902;28;20080;-65
2022/08/19 09:07:17;;;;;;;7.90;5.65;;;36.00;82.90;;;;;;5012671;28;20502;-64
2022/08/19 09:09:48;;;;;;;8.57;6.55;;;36.00;81.90;;;;;;5013573;28;20510;-64
2022/08/19 09:12:45;;;;;;;6.63;5.88;;;36.00;81.80;;;;;;5013775;28;20097;-63
2022/08/19 09:15:14;;;;;;;6.30;5.53;;;36.20;82.10;;;;;;5011603;28;20530;-64
2022/08/19 09:17:40;;;;;;;7.53;6.35;;;36.40;81.80;;;;;;5013500;28;20055;-64
2022/08/19 09:20:09;;;;;;;7.45;6.28;;;36.20;81.80;;;;;;5013868;28;20426;-63
2022/08/19 09:22:39;;;;;;;6.15;5.43;;;36.20;81.70;;;;;;5013424;28;20169;-63
2022/08/19 09:25:07;;;;;;;6.53;5.45;;;36.10;82.60;;;;;;5013794;28;20050;-63
2022/08/19 09:27:35;;;;;;;6.95;5.50;;;36.10;81.50;;;;;;5012057;28;20380;-64
2022/08/19 09:30:01;;;;;;;6.85;6.03;;;36.20;80.50;;;;;;5012450;28;20137;-64
2022/08/19 09:32:30;;;;;;;7.95;6.18;;;36.20;80.90;;;;;;5011969;28;20133;-63
2022/08/19 09:34:57;;;;;;;7.07;5.68;;;36.00;81.70;;;;;;5013550;28;20046;-63
2022/08/19 09:37:24;;;;;;;8.00;5.82;;;35.90;81.70;;;;;;5013479;28;20166;-63
2022/08/19 09:39:50;;;;;;;6.82;5.78;;;36.00;80.70;;;;;;4995893;28;20499;-63
2022/08/19 09:42:17;;;;;;;6.38;5.75;;;35.90;80.50;;;;;;5013525;28;20052;-64
2022/08/19 09:44:43;;;;;;;6.93;6.28;;;35.30;80.70;;;;;;5012885;28;20052;-63
2022/08/19 09:47:11;;;;;;;7.00;5.93;;;34.80;81.60;;;;;;5013286;28;20054;-63
2022/08/19 09:49:38;;;;;;;8.02;6.38;;;34.30;81.30;;;;;;5012873;28;20164;-62
2022/08/19 09:52:04;;;;;;;6.22;5.60;;;33.90;81.80;;;;;;5013072;28;20046;-63
2022/08/19 09:54:30;;;;;;;6.72;5.88;;;33.40;82.60;;;;;;5011956;28;20073;-64
2022/08/19 09:57:00;;;;;;;9.73;6.93;;;33.00;82.80;;;;;;5013097;28;20045;-64
2022/08/19 09:59:26;;;;;;;6.97;6.28;;;32.80;83.70;;;;;;5011800;28;20073;-63
2022/08/19 10:01:52;;;;;;;6.95;5.65;;;32.50;84.10;;;;;;5011778;28;20042;-64
2022/08/19 10:04:20;;;;;;;7.68;6.13;;;32.50;85.20;;;;;;5012204;28;20395;-64
2022/08/19 10:06:48;;;;;;;7.75;6.65;;;32.40;84.70;;;;;;4980283;28;20084;-63
2022/08/19 10:09:16;;;;;;;8.45;6.00;;;32.20;84.10;;;;;;5012798;28;20096;-64
2022/08/19 10:11:47;;;;;;;7.53;6.72;;;32.00;84.90;;;;;;5011813;28;20042;-64
2022/08/19 10:14:14;;;;;;;7.65;6.35;;;31.90;85.00;;;;;;5012785;28;20054;-64
2022/08/19 10:16:41;;;;;;;7.30;6.60;;;31.80;85.50;;;;;;5013065;28;20081;-65
2022/08/19 10:19:09;;;;;;;8.25;7.35;;;31.80;86.00;;;;;;5011572;28;20049;-64
2022/08/19 10:21:36;;;;;;;7.95;7.00;;;31.80;85.80;;;;;;5011613;28;20046;-63
2022/08/19 10:24:05;;;;;;;10.68;7.10;;;31.60;86.10;;;;;;4995975;28;20602;-63
2022/08/19 10:26:36;;;;;;;8.15;7.15;;;31.50;86.10;;;;;;4995471;28;20483;-67
2022/08/19 10:29:04;;;;;;;8.10;7.30;;;31.30;86.40;;;;;;5011971;28;20046;-65
2022/08/19 10:31:33;;;;;;;8.10;7.30;;;31.20;86.20;;;;;;5011410;28;20188;-64
2022/08/19 10:34:00;;;;;;;8.43;7.45;;;31.10;85.70;;;;;;5011914;28;20049;-66
2022/08/19 10:36:32;;;;;;;8.93;6.80;;;31.10;85.50;;;;;;5012713;28;20451;-64
2022/08/19 10:39:01;;;;;;;8.50;7.70;;;31.10;86.70;;;;;;5013135;28;20081;-63
2022/08/19 10:41:30;;;;;;;8.70;7.63;;;31.10;86.40;;;;;;5011875;28;20042;-65
2022/08/19 10:44:05;;;;;;;9.07;8.18;;;31.10;87.10;;;;;;4995447;28;20132;-64
2022/08/19 10:46:33;;;;;;;8.45;7.50;;;31.10;86.60;;;;;;5011131;28;20093;-62
2022/08/19 10:49:01;;;;;;;10.40;8.10;;;31.20;86.70;;;;;;5012216;28;20129;-63
2022/08/19 10:54:11;;;;;;;9.60;7.18;;;31.30;86.80;;;;;;4997427;28;20058;-62
2022/08/19 10:56:52;;;;;;;8.75;7.53;;;31.10;86.80;;;;;;5010879;28;20502;-62
2022/08/19 10:59:23;;;;;;;9.52;8.52;;;30.90;88.10;;;;;;5012232;28;20042;-62
2022/08/19 11:01:50;;;;;;;9.88;8.48;;;30.80;87.80;;;;;;5010988;28;20127;-63
2022/08/19 11:04:17;;;;;;;9.65;8.65;;;30.80;88.20;;;;;;5011785;28;20467;-63
2022/08/19 11:06:46;;;;;;;8.27;7.38;;;30.80;87.90;;;;;;5011853;28;20057;-63
2022/08/19 11:09:13;;;;;;;9.40;8.02;;;30.80;88.60;;;;;;5010918;28;20450;-63
2022/08/19 11:11:40;;;;;;;10.75;7.60;;;30.90;88.40;;;;;;5010133;28;20049;-62
2022/08/19 11:14:07;;;;;;;10.70;8.52;;;31.00;88.20;;;;;;5011892;28;20058;-62
2022/08/19 11:16:34;;;;;;;14.27;11.25;;;31.10;89.10;;;;;;5011979;28;20053;-64
2022/08/19 11:19:00;;;;;;;11.02;9.85;;;31.00;88.90;;;;;;5011671;28;20053;-63
2022/08/19 11:21:32;;;;;;;10.43;9.43;;;31.00;89.00;;;;;;5012861;28;20050;-63
2022/08/19 11:24:05;;;;;;;10.90;9.35;;;31.10;89.40;;;;;;5015967;28;20065;-63
2022/08/19 11:26:32;;;;;;;10.02;8.48;;;31.00;88.90;;;;;;5014802;28;20057;-64
2022/08/19 11:28:59;;;;;;;9.35;6.30;;;31.10;88.90;;;;;;5014703;28;20049;-63
2022/08/19 11:31:31;;;;;;;7.55;6.53;;;31.00;86.40;;;;;;5015589;28;20511;-63
2022/08/19 11:33:59;;;;;;;10.00;8.30;;;31.10;87.30;;;;;;5015641;28;20049;-63
2022/08/19 11:36:26;;;;;;;10.73;9.10;;;31.10;88.10;;;;;;5015940;28;20067;-64
2022/08/19 11:38:52;;;;;;;8.93;8.02;;;30.90;88.10;;;;;;5015394;28;20068;-65
2022/08/19 11:41:20;;;;;;;9.80;8.80;;;30.90;88.60;;;;;;4998343;28;20075;-63
2022/08/19 11:43:46;;;;;;;10.75;8.13;;;30.90;88.30;;;;;;5014462;28;20125;-63
2022/08/19 11:46:15;;;;;;;9.20;8.18;;;30.80;88.80;;;;;;5014370;28;20442;-65
2022/08/19 11:48:41;;;;;;;9.32;8.32;;;30.80;87.80;;;;;;5015563;28;20037;-65
2022/08/19 11:51:24;;;;;;;9.23;8.32;;;30.70;86.90;;;;;;5014277;28;20042;-63
2022/08/19 11:53:50;;;;;;;8.80;7.60;;;30.70;87.90;;;;;;5015238;28;20057;-63
2022/08/19 11:56:18;;;;;;;9.35;8.32;;;30.60;88.50;;;;;;5015516;28;20103;-64
2022/08/19 11:58:44;;;;;;;8.45;7.65;;;30.50;88.00;;;;;;5014054;28;20053;-63
2022/08/19 12:01:16;;;;;;;9.32;7.95;;;30.40;88.50;;;;;;5015456;28;20085;-63
2022/08/19 12:03:43;;;;;;;8.82;8.00;;;30.40;89.00;;;;;;5015421;28;20050;-64
2022/08/19 12:06:13;;;;;;;8.45;7.00;;;30.40;89.00;;;;;;5015278;28;20513;-63
2022/08/19 12:08:40;;;;;;;10.07;8.95;;;30.30;90.10;;;;;;5015047;28;20076;-63
2022/08/19 12:11:07;;;;;;;8.65;7.15;;;30.20;88.90;;;;;;5014841;28;20049;-63
2022/08/19 12:13:34;;;;;;;9.60;8.27;;;30.20;89.80;;;;;;5015238;28;20480;-64
2022/08/19 12:16:00;;;;;;;8.45;7.57;;;30.30;89.40;;;;;;4997075;28;20136;-63
2022/08/19 12:18:26;;;;;;;7.93;6.38;;;30.20;88.70;;;;;;5015011;28;20053;-62
2022/08/19 12:20:56;;;;;;;10.13;7.05;;;30.20;87.80;;;;;;4997150;28;20052;-64
2022/08/19 12:23:22;;;;;;;8.52;7.63;;;30.20;87.80;;;;;;5015174;28;20046;-63
2022/08/19 12:25:52;;;;;;;8.45;7.13;;;30.20;88.00;;;;;;5013488;28;20050;-63
2022/08/19 12:28:25;;;;;;;9.32;8.43;;;30.30;88.70;;;;;;5014731;28;20053;-63
2022/08/19 12:30:51;;;;;;;;;;;30.30;88.20;;;;;;5013472;28;20403;-64
2022/08/19 12:33:19;;;;;;;10.43;7.60;;;30.40;89.10;;;;;;5013869;28;19928;-62
2022/08/19 12:35:46;;;;;;;9.05;7.95;;;30.40;88.30;;;;;;5014716;28;20045;-64
2022/08/19 12:38:13;;;;;;;8.25;6.93;;;30.30;88.70;;;;;;5014806;28;20061;-64
2022/08/19 12:40:42;;;;;;;8.95;6.70;;;30.30;88.80;;;;;;5013382;28;20056;-63
2022/08/19 12:43:08;;;;;;;9.52;8.05;;;30.20;88.90;;;;;;5013414;28;20049;-62
2022/08/19 12:45:34;;;;;;;10.43;8.27;;;30.10;88.70;;;;;;5013403;28;20041;-63
2022/08/19 12:48:00;;;;;;;8.05;6.97;;;30.10;88.90;;;;;;4996980;28;20380;-63
2022/08/19 12:50:26;;;;;;;9.80;7.95;;;29.90;89.30;;;;;;5014430;28;20195;-63
2022/08/19 12:52:51;;;;;;;9.68;7.20;;;29.80;89.00;;;;;;5014109;28;20044;-63
2022/08/19 12:55:18;;;;;;;9.38;6.95;;;29.70;89.20;;;;;;5014359;28;20048;-63
2022/08/19 12:57:44;;;;;;;8.27;6.47;;;29.80;89.60;;;;;;5013266;28;20054;-63
2022/08/19 13:00:13;;;;;;;7.68;6.65;;;29.90;89.20;;;;;;5014213;28;20060;-62
2022/08/19 13:02:44;;;;;;;9.23;7.20;;;30.00;89.30;;;;;;5014204;28;20041;-63
2022/08/19 13:05:14;;;;;;;8.95;7.53;;;30.10;89.00;;;;;;5012970;28;20636;-63